sensor_id;sensor_type;location;lat;lon;timestamp;P1;durP1;ratioP1;P2;durP2;ratioP2
24259;SDS011;12384;48.112;18.418;2022-12-11T00:01:12;17.50;;;15.70;;
24259;SDS011;12384;48.112;18.418;2022-12-11T00:03:44;18.67;;;16.63;;
24259;SDS011;12384;48.112;18.418;2022-12-11T00:06:13;16.77;;;14.90;;
24259;SDS011;12384;48.112;18.418;2022-12-11T00:08:43;18.50;;;15.97;;
24259;SDS011;12384;48.112;18.418;2022-12-11T00:11:12;19.27;;;17.20;;
24259;SDS011;12384;48.112;18.418;2022-12-11T00:13:42;18.77;;;16.70;;
24259;SDS011;12384;48.112;18.418;2022-12-11T00:16:12;17.70;;;15.80;;
24259;SDS011;12384;48.112;18.418;2022-12-11T00:18:41;18.50;;;16.47;;
24259;SDS011;12384;48.112;18.418;2022-12-11T00:21:11;17.83;;;15.10;;
24259;SDS011;12384;48.112;18.418;2022-12-11T00:23:41;18.13;;;15.77;;
24259;SDS011;12384;48.112;18.418;2022-12-11T00:26:11;18.20;;;16.23;;
24259;SDS011;12384;48.112;18.418;2022-12-11T00:28:41;19.20;;;16.23;;
24259;SDS011;12384;48.112;18.418;2022-12-11T00:31:14;17.77;;;15.87;;
24259;SDS011;12384;48.112;18.418;2022-12-11T00:33:44;18.17;;;16.27;;
24259;SDS011;12384;48.112;18.418;2022-12-11T00:36:15;18.17;;;16.10;;
24259;SDS011;12384;48.112;18.418;2022-12-11T00:38:45;17.20;;;15.40;;
24259;SDS011;12384;48.112;18.418;2022-12-11T00:41:16;17.90;;;15.40;;
24259;SDS011;12384;48.112;18.418;2022-12-11T00:43:45;16.30;;;14.70;;
24259;SDS011;12384;48.112;18.418;2022-12-11T00:46:16;17.60;;;15.33;;
24259;SDS011;12384;48.112;18.418;2022-12-11T00:48:44;17.13;;;15.33;;
24259;SDS011;12384;48.112;18.418;2022-12-11T00:51:15;16.13;;;14.53;;
24259;SDS011;12384;48.112;18.418;2022-12-11T00:53:44;16.77;;;14.97;;
24259;SDS011;12384;48.112;18.418;2022-12-11T00:56:13;15.57;;;14.03;;
24259;SDS011;12384;48.112;18.418;2022-12-11T00:58:43;16.10;;;14.37;;
24259;SDS011;12384;48.112;18.418;2022-12-11T01:01:13;16.50;;;14.90;;
24259;SDS011;12384;48.112;18.418;2022-12-11T01:03:44;14.17;;;12.87;;
24259;SDS011;12384;48.112;18.418;2022-12-11T01:06:13;15.07;;;13.60;;
24259;SDS011;12384;48.112;18.418;2022-12-11T01:08:43;15.27;;;13.77;;
24259;SDS011;12384;48.112;18.418;2022-12-11T01:11:13;15.80;;;14.20;;
24259;SDS011;12384;48.112;18.418;2022-12-11T01:13:41;14.37;;;12.97;;
24259;SDS011;12384;48.112;18.418;2022-12-11T01:16:11;13.70;;;12.40;;
24259;SDS011;12384;48.112;18.418;2022-12-11T01:18:41;13.57;;;12.27;;
24259;SDS011;12384;48.112;18.418;2022-12-11T01:21:12;14.87;;;13.00;;
24259;SDS011;12384;48.112;18.418;2022-12-11T01:23:40;14.10;;;12.77;;
24259;SDS011;12384;48.112;18.418;2022-12-11T01:26:09;13.17;;;11.97;;
24259;SDS011;12384;48.112;18.418;2022-12-11T01:28:39;14.43;;;13.03;;
24259;SDS011;12384;48.112;18.418;2022-12-11T01:31:09;13.40;;;12.20;;
24259;SDS011;12384;48.112;18.418;2022-12-11T01:33:38;13.70;;;12.00;;
24259;SDS011;12384;48.112;18.418;2022-12-11T01:36:07;13.13;;;11.87;;
24259;SDS011;12384;48.112;18.418;2022-12-11T01:38:38;13.63;;;12.33;;
24259;SDS011;12384;48.112;18.418;2022-12-11T01:41:07;13.07;;;11.97;;
24259;SDS011;12384;48.112;18.418;2022-12-11T01:46:24;12.33;;;11.03;;
24259;SDS011;12384;48.112;18.418;2022-12-11T01:48:53;13.20;;;11.90;;
24259;SDS011;12384;48.112;18.418;2022-12-11T01:51:22;13.10;;;11.90;;
24259;SDS011;12384;48.112;18.418;2022-12-11T01:53:53;12.07;;;10.97;;
24259;SDS011;12384;48.112;18.418;2022-12-11T01:56:25;12.40;;;11.23;;
24259;SDS011;12384;48.112;18.418;2022-12-11T01:58:58;13.00;;;11.80;;
24259;SDS011;12384;48.112;18.418;2022-12-11T02:01:34;11.80;;;10.80;;
24259;SDS011;12384;48.112;18.418;2022-12-11T02:04:06;11.73;;;10.63;;
24259;SDS011;12384;48.112;18.418;2022-12-11T02:06:36;12.30;;;11.20;;
24259;SDS011;12384;48.112;18.418;2022-12-11T02:09:07;11.27;;;10.20;;
24259;SDS011;12384;48.112;18.418;2022-12-11T02:11:41;12.00;;;11.03;;
24259;SDS011;12384;48.112;18.418;2022-12-11T02:14:19;12.53;;;11.47;;
24259;SDS011;12384;48.112;18.418;2022-12-11T02:16:56;11.70;;;10.70;;
24259;SDS011;12384;48.112;18.418;2022-12-11T02:19:42;11.80;;;10.80;;
24259;SDS011;12384;48.112;18.418;2022-12-11T02:22:18;12.00;;;11.00;;
24259;SDS011;12384;48.112;18.418;2022-12-11T02:25:00;12.53;;;11.43;;
24259;SDS011;12384;48.112;18.418;2022-12-11T02:27:35;13.20;;;11.90;;
24259;SDS011;12384;48.112;18.418;2022-12-11T02:30:11;12.40;;;11.30;;
24259;SDS011;12384;48.112;18.418;2022-12-11T02:32:42;12.80;;;11.80;;
24259;SDS011;12384;48.112;18.418;2022-12-11T02:35:14;13.60;;;12.30;;
24259;SDS011;12384;48.112;18.418;2022-12-11T02:37:47;12.50;;;11.60;;
24259;SDS011;12384;48.112;18.418;2022-12-11T02:40:22;12.97;;;11.93;;
24259;SDS011;12384;48.112;18.418;2022-12-11T02:42:54;11.67;;;10.77;;
24259;SDS011;12384;48.112;18.418;2022-12-11T02:45:28;12.83;;;11.73;;
24259;SDS011;12384;48.112;18.418;2022-12-11T02:47:57;12.27;;;11.27;;
24259;SDS011;12384;48.112;18.418;2022-12-11T02:50:30;13.10;;;12.10;;
24259;SDS011;12384;48.112;18.418;2022-12-11T02:53:00;12.83;;;11.83;;
24259;SDS011;12384;48.112;18.418;2022-12-11T02:55:31;12.53;;;11.43;;
24259;SDS011;12384;48.112;18.418;2022-12-11T02:58:04;13.30;;;12.10;;
24259;SDS011;12384;48.112;18.418;2022-12-11T03:00:37;12.67;;;11.77;;
24259;SDS011;12384;48.112;18.418;2022-12-11T03:03:06;12.90;;;11.70;;
24259;SDS011;12384;48.112;18.418;2022-12-11T03:05:35;13.13;;;12.03;;
24259;SDS011;12384;48.112;18.418;2022-12-11T03:08:03;13.53;;;12.33;;
24259;SDS011;12384;48.112;18.418;2022-12-11T03:10:32;12.77;;;11.77;;
24259;SDS011;12384;48.112;18.418;2022-12-11T03:13:01;13.23;;;12.13;;
24259;SDS011;12384;48.112;18.418;2022-12-11T03:15:32;12.50;;;11.30;;
24259;SDS011;12384;48.112;18.418;2022-12-11T03:18:11;12.37;;;11.37;;
24259;SDS011;12384;48.112;18.418;2022-12-11T03:20:49;11.47;;;10.50;;
24259;SDS011;12384;48.112;18.418;2022-12-11T03:23:23;12.50;;;11.40;;
24259;SDS011;12384;48.112;18.418;2022-12-11T03:25:58;11.93;;;10.83;;
24259;SDS011;12384;48.112;18.418;2022-12-11T03:28:30;11.83;;;10.83;;
24259;SDS011;12384;48.112;18.418;2022-12-11T03:31:04;13.30;;;12.20;;
24259;SDS011;12384;48.112;18.418;2022-12-11T03:33:38;13.83;;;12.53;;
24259;SDS011;12384;48.112;18.418;2022-12-11T03:36:09;13.07;;;11.87;;
24259;SDS011;12384;48.112;18.418;2022-12-11T03:38:43;12.47;;;11.47;;
24259;SDS011;12384;48.112;18.418;2022-12-11T03:41:16;13.70;;;12.40;;
24259;SDS011;12384;48.112;18.418;2022-12-11T03:43:47;13.57;;;12.47;;
24259;SDS011;12384;48.112;18.418;2022-12-11T03:46:19;13.83;;;12.53;;
24259;SDS011;12384;48.112;18.418;2022-12-11T03:48:52;12.87;;;11.77;;
24259;SDS011;12384;48.112;18.418;2022-12-11T03:51:23;13.00;;;11.80;;
24259;SDS011;12384;48.112;18.418;2022-12-11T03:53:53;12.77;;;11.67;;
24259;SDS011;12384;48.112;18.418;2022-12-11T03:56:23;12.57;;;11.57;;
24259;SDS011;12384;48.112;18.418;2022-12-11T03:58:53;12.13;;;11.23;;
24259;SDS011;12384;48.112;18.418;2022-12-11T04:01:22;13.23;;;12.13;;
24259;SDS011;12384;48.112;18.418;2022-12-11T04:03:50;11.93;;;10.90;;
24259;SDS011;12384;48.112;18.418;2022-12-11T04:06:20;12.50;;;11.43;;
24259;SDS011;12384;48.112;18.418;2022-12-11T04:08:49;12.67;;;11.57;;
24259;SDS011;12384;48.112;18.418;2022-12-11T04:11:17;12.20;;;11.23;;
24259;SDS011;12384;48.112;18.418;2022-12-11T04:14:01;12.07;;;11.17;;
24259;SDS011;12384;48.112;18.418;2022-12-11T04:16:48;12.27;;;11.27;;
24259;SDS011;12384;48.112;18.418;2022-12-11T04:19:18;12.73;;;11.63;;
24259;SDS011;12384;48.112;18.418;2022-12-11T04:22:04;11.60;;;10.70;;
24259;SDS011;12384;48.112;18.418;2022-12-11T04:24:51;12.50;;;11.43;;
24259;SDS011;12384;48.112;18.418;2022-12-11T04:27:20;12.60;;;11.60;;
24259;SDS011;12384;48.112;18.418;2022-12-11T04:30:07;12.47;;;11.27;;
24259;SDS011;12384;48.112;18.418;2022-12-11T04:32:38;11.73;;;10.83;;
24259;SDS011;12384;48.112;18.418;2022-12-11T04:35:08;12.33;;;11.33;;
24259;SDS011;12384;48.112;18.418;2022-12-11T04:37:38;12.50;;;11.43;;
24259;SDS011;12384;48.112;18.418;2022-12-11T04:40:08;12.20;;;11.20;;
24259;SDS011;12384;48.112;18.418;2022-12-11T04:42:39;12.00;;;11.00;;
24259;SDS011;12384;48.112;18.418;2022-12-11T04:45:08;12.07;;;11.07;;
24259;SDS011;12384;48.112;18.418;2022-12-11T04:47:38;11.80;;;10.80;;
24259;SDS011;12384;48.112;18.418;2022-12-11T04:50:10;12.60;;;11.50;;
24259;SDS011;12384;48.112;18.418;2022-12-11T04:52:39;11.80;;;10.80;;
24259;SDS011;12384;48.112;18.418;2022-12-11T04:55:09;11.70;;;10.50;;
24259;SDS011;12384;48.112;18.418;2022-12-11T04:57:38;12.30;;;11.10;;
24259;SDS011;12384;48.112;18.418;2022-12-11T05:00:07;12.00;;;10.90;;
24259;SDS011;12384;48.112;18.418;2022-12-11T05:02:38;12.10;;;11.10;;
24259;SDS011;12384;48.112;18.418;2022-12-11T05:05:09;11.43;;;10.53;;
24259;SDS011;12384;48.112;18.418;2022-12-11T05:07:39;11.37;;;10.47;;
24259;SDS011;12384;48.112;18.418;2022-12-11T05:10:08;11.50;;;10.50;;
24259;SDS011;12384;48.112;18.418;2022-12-11T05:12:37;12.07;;;11.00;;
24259;SDS011;12384;48.112;18.418;2022-12-11T05:15:05;12.87;;;11.77;;
24259;SDS011;12384;48.112;18.418;2022-12-11T05:17:35;12.10;;;11.10;;
24259;SDS011;12384;48.112;18.418;2022-12-11T05:20:05;12.73;;;11.63;;
24259;SDS011;12384;48.112;18.418;2022-12-11T05:22:35;11.50;;;10.50;;
24259;SDS011;12384;48.112;18.418;2022-12-11T05:25:04;11.90;;;10.70;;
24259;SDS011;12384;48.112;18.418;2022-12-11T05:27:35;11.67;;;10.67;;
24259;SDS011;12384;48.112;18.418;2022-12-11T05:30:04;11.53;;;10.57;;
24259;SDS011;12384;48.112;18.418;2022-12-11T05:32:33;12.00;;;10.90;;
24259;SDS011;12384;48.112;18.418;2022-12-11T05:35:01;12.23;;;11.07;;
24259;SDS011;12384;48.112;18.418;2022-12-11T05:37:31;11.27;;;10.37;;
24259;SDS011;12384;48.112;18.418;2022-12-11T05:40:02;11.97;;;10.87;;
24259;SDS011;12384;48.112;18.418;2022-12-11T05:42:32;11.80;;;10.90;;
24259;SDS011;12384;48.112;18.418;2022-12-11T05:45:00;11.63;;;10.57;;
24259;SDS011;12384;48.112;18.418;2022-12-11T05:47:29;11.07;;;10.07;;
24259;SDS011;12384;48.112;18.418;2022-12-11T05:49:58;11.83;;;10.83;;
24259;SDS011;12384;48.112;18.418;2022-12-11T05:52:26;11.40;;;10.50;;
24259;SDS011;12384;48.112;18.418;2022-12-11T05:54:55;11.53;;;10.53;;
24259;SDS011;12384;48.112;18.418;2022-12-11T05:57:25;10.90;;;9.53;;
24259;SDS011;12384;48.112;18.418;2022-12-11T05:59:53;10.97;;;9.97;;
24259;SDS011;12384;48.112;18.418;2022-12-11T06:02:22;11.13;;;10.23;;
24259;SDS011;12384;48.112;18.418;2022-12-11T06:04:50;11.50;;;10.40;;
24259;SDS011;12384;48.112;18.418;2022-12-11T06:07:19;11.60;;;10.60;;
24259;SDS011;12384;48.112;18.418;2022-12-11T06:09:49;12.43;;;11.33;;
24259;SDS011;12384;48.112;18.418;2022-12-11T06:12:18;11.47;;;10.47;;
24259;SDS011;12384;48.112;18.418;2022-12-11T06:14:47;10.93;;;10.03;;
24259;SDS011;12384;48.112;18.418;2022-12-11T06:17:16;11.13;;;10.23;;
24259;SDS011;12384;48.112;18.418;2022-12-11T06:19:45;11.50;;;10.50;;
24259;SDS011;12384;48.112;18.418;2022-12-11T06:22:13;11.33;;;10.23;;
24259;SDS011;12384;48.112;18.418;2022-12-11T06:24:41;11.27;;;10.27;;
24259;SDS011;12384;48.112;18.418;2022-12-11T06:27:10;11.87;;;10.77;;
24259;SDS011;12384;48.112;18.418;2022-12-11T06:29:38;12.13;;;11.03;;
24259;SDS011;12384;48.112;18.418;2022-12-11T06:32:08;11.70;;;10.70;;
24259;SDS011;12384;48.112;18.418;2022-12-11T06:34:37;11.73;;;10.73;;
24259;SDS011;12384;48.112;18.418;2022-12-11T06:37:05;12.13;;;11.13;;
24259;SDS011;12384;48.112;18.418;2022-12-11T06:39:34;11.50;;;10.50;;
24259;SDS011;12384;48.112;18.418;2022-12-11T06:42:02;10.87;;;9.97;;
24259;SDS011;12384;48.112;18.418;2022-12-11T06:44:31;11.27;;;10.37;;
24259;SDS011;12384;48.112;18.418;2022-12-11T06:46:59;11.43;;;10.53;;
24259;SDS011;12384;48.112;18.418;2022-12-11T06:49:29;10.73;;;9.93;;
24259;SDS011;12384;48.112;18.418;2022-12-11T06:51:57;12.33;;;11.23;;
24259;SDS011;12384;48.112;18.418;2022-12-11T06:54:26;11.60;;;10.70;;
24259;SDS011;12384;48.112;18.418;2022-12-11T06:56:55;11.53;;;10.53;;
24259;SDS011;12384;48.112;18.418;2022-12-11T06:59:23;12.30;;;11.10;;
24259;SDS011;12384;48.112;18.418;2022-12-11T07:01:52;11.67;;;10.77;;
24259;SDS011;12384;48.112;18.418;2022-12-11T07:04:20;12.10;;;11.10;;
24259;SDS011;12384;48.112;18.418;2022-12-11T07:06:51;11.43;;;10.63;;
24259;SDS011;12384;48.112;18.418;2022-12-11T07:09:20;11.07;;;10.27;;
24259;SDS011;12384;48.112;18.418;2022-12-11T07:11:49;11.27;;;10.27;;
24259;SDS011;12384;48.112;18.418;2022-12-11T07:14:18;11.30;;;10.40;;
24259;SDS011;12384;48.112;18.418;2022-12-11T07:16:47;10.83;;;10.03;;
24259;SDS011;12384;48.112;18.418;2022-12-11T07:19:16;10.27;;;9.50;;
24259;SDS011;12384;48.112;18.418;2022-12-11T07:21:44;11.43;;;10.53;;
24259;SDS011;12384;48.112;18.418;2022-12-11T07:24:14;10.30;;;9.50;;
24259;SDS011;12384;48.112;18.418;2022-12-11T07:26:43;11.13;;;10.33;;
24259;SDS011;12384;48.112;18.418;2022-12-11T07:29:11;9.97;;;9.17;;
24259;SDS011;12384;48.112;18.418;2022-12-11T07:31:40;9.93;;;9.23;;
24259;SDS011;12384;48.112;18.418;2022-12-11T07:34:10;10.13;;;9.43;;
24259;SDS011;12384;48.112;18.418;2022-12-11T07:36:39;10.60;;;9.80;;
24259;SDS011;12384;48.112;18.418;2022-12-11T07:39:09;10.67;;;9.87;;
24259;SDS011;12384;48.112;18.418;2022-12-11T07:41:39;10.37;;;9.60;;
24259;SDS011;12384;48.112;18.418;2022-12-11T07:44:09;10.30;;;9.53;;
24259;SDS011;12384;48.112;18.418;2022-12-11T07:46:38;10.27;;;9.47;;
24259;SDS011;12384;48.112;18.418;2022-12-11T07:49:07;11.10;;;10.30;;
24259;SDS011;12384;48.112;18.418;2022-12-11T07:51:36;10.33;;;9.63;;
24259;SDS011;12384;48.112;18.418;2022-12-11T07:54:06;10.27;;;9.53;;
24259;SDS011;12384;48.112;18.418;2022-12-11T07:56:37;10.77;;;9.87;;
24259;SDS011;12384;48.112;18.418;2022-12-11T07:59:10;10.73;;;9.93;;
24259;SDS011;12384;48.112;18.418;2022-12-11T08:01:39;11.03;;;10.33;;
24259;SDS011;12384;48.112;18.418;2022-12-11T08:04:09;11.27;;;10.43;;
24259;SDS011;12384;48.112;18.418;2022-12-11T08:06:41;10.17;;;9.50;;
24259;SDS011;12384;48.112;18.418;2022-12-11T08:09:10;10.20;;;9.40;;
24259;SDS011;12384;48.112;18.418;2022-12-11T08:11:47;10.50;;;9.80;;
24259;SDS011;12384;48.112;18.418;2022-12-11T08:14:18;10.40;;;9.70;;
24259;SDS011;12384;48.112;18.418;2022-12-11T08:16:46;10.40;;;9.70;;
24259;SDS011;12384;48.112;18.418;2022-12-11T08:19:15;10.47;;;9.70;;
24259;SDS011;12384;48.112;18.418;2022-12-11T08:21:44;11.23;;;10.43;;
24259;SDS011;12384;48.112;18.418;2022-12-11T08:24:13;12.47;;;11.57;;
24259;SDS011;12384;48.112;18.418;2022-12-11T08:26:46;11.23;;;10.47;;
24259;SDS011;12384;48.112;18.418;2022-12-11T08:29:14;11.40;;;10.60;;
24259;SDS011;12384;48.112;18.418;2022-12-11T08:31:44;11.27;;;10.20;;
24259;SDS011;12384;48.112;18.418;2022-12-11T08:34:13;11.77;;;10.97;;
24259;SDS011;12384;48.112;18.418;2022-12-11T08:36:41;9.80;;;9.10;;
24259;SDS011;12384;48.112;18.418;2022-12-11T08:39:10;9.87;;;9.17;;
24259;SDS011;12384;48.112;18.418;2022-12-11T08:41:39;10.43;;;9.73;;
24259;SDS011;12384;48.112;18.418;2022-12-11T08:44:09;9.97;;;9.20;;
24259;SDS011;12384;48.112;18.418;2022-12-11T08:46:42;10.27;;;9.47;;
24259;SDS011;12384;48.112;18.418;2022-12-11T08:49:12;10.20;;;9.50;;
24259;SDS011;12384;48.112;18.418;2022-12-11T08:51:40;10.80;;;10.00;;
24259;SDS011;12384;48.112;18.418;2022-12-11T08:54:09;9.93;;;9.33;;
24259;SDS011;12384;48.112;18.418;2022-12-11T08:56:37;10.03;;;9.43;;
24259;SDS011;12384;48.112;18.418;2022-12-11T08:59:06;10.73;;;9.93;;
24259;SDS011;12384;48.112;18.418;2022-12-11T09:01:34;9.87;;;9.17;;
24259;SDS011;12384;48.112;18.418;2022-12-11T09:04:03;10.70;;;10.00;;
24259;SDS011;12384;48.112;18.418;2022-12-11T09:06:33;10.70;;;10.00;;
24259;SDS011;12384;48.112;18.418;2022-12-11T09:09:02;11.37;;;10.57;;
24259;SDS011;12384;48.112;18.418;2022-12-11T09:11:32;12.30;;;11.40;;
24259;SDS011;12384;48.112;18.418;2022-12-11T09:14:02;11.70;;;10.90;;
24259;SDS011;12384;48.112;18.418;2022-12-11T09:16:37;11.97;;;11.17;;
24259;SDS011;12384;48.112;18.418;2022-12-11T09:19:07;11.70;;;10.90;;
24259;SDS011;12384;48.112;18.418;2022-12-11T09:21:40;11.07;;;10.33;;
24259;SDS011;12384;48.112;18.418;2022-12-11T09:24:09;12.53;;;11.63;;
24259;SDS011;12384;48.112;18.418;2022-12-11T09:26:39;12.00;;;11.20;;
24259;SDS011;12384;48.112;18.418;2022-12-11T09:29:09;12.50;;;11.50;;
24259;SDS011;12384;48.112;18.418;2022-12-11T09:31:38;11.70;;;10.90;;
24259;SDS011;12384;48.112;18.418;2022-12-11T09:34:08;11.50;;;10.70;;
24259;SDS011;12384;48.112;18.418;2022-12-11T09:36:40;10.00;;;9.30;;
24259;SDS011;12384;48.112;18.418;2022-12-11T09:39:11;10.60;;;9.83;;
24259;SDS011;12384;48.112;18.418;2022-12-11T09:41:45;10.17;;;9.37;;
24259;SDS011;12384;48.112;18.418;2022-12-11T09:50:02;9.70;;;9.10;;
24259;SDS011;12384;48.112;18.418;2022-12-11T09:52:41;10.00;;;9.23;;
24259;SDS011;12384;48.112;18.418;2022-12-11T09:55:20;10.00;;;9.30;;
24259;SDS011;12384;48.112;18.418;2022-12-11T09:57:52;10.27;;;9.57;;
24259;SDS011;12384;48.112;18.418;2022-12-11T10:00:29;11.30;;;10.50;;
24259;SDS011;12384;48.112;18.418;2022-12-11T10:06:15;9.90;;;9.30;;
24259;SDS011;12384;48.112;18.418;2022-12-11T10:08:52;10.17;;;9.47;;
24259;SDS011;12384;48.112;18.418;2022-12-11T10:11:36;9.87;;;9.23;;
24259;SDS011;12384;48.112;18.418;2022-12-11T10:14:29;9.60;;;9.00;;
24259;SDS011;12384;48.112;18.418;2022-12-11T10:17:11;10.33;;;9.53;;
24259;SDS011;12384;48.112;18.418;2022-12-11T10:19:43;9.63;;;9.00;;
24259;SDS011;12384;48.112;18.418;2022-12-11T10:22:13;9.50;;;8.90;;
24259;SDS011;12384;48.112;18.418;2022-12-11T10:24:48;10.13;;;9.53;;
24259;SDS011;12384;48.112;18.418;2022-12-11T10:27:37;10.33;;;9.63;;
24259;SDS011;12384;48.112;18.418;2022-12-11T10:30:12;9.93;;;9.23;;
24259;SDS011;12384;48.112;18.418;2022-12-11T10:32:46;10.20;;;9.50;;
24259;SDS011;12384;48.112;18.418;2022-12-11T10:35:22;10.40;;;9.70;;
24259;SDS011;12384;48.112;18.418;2022-12-11T10:37:57;10.47;;;9.83;;
24259;SDS011;12384;48.112;18.418;2022-12-11T10:40:38;10.63;;;9.93;;
24259;SDS011;12384;48.112;18.418;2022-12-11T10:43:09;12.03;;;11.23;;
24259;SDS011;12384;48.112;18.418;2022-12-11T10:45:38;11.90;;;11.10;;
24259;SDS011;12384;48.112;18.418;2022-12-11T10:48:08;10.93;;;10.23;;
24259;SDS011;12384;48.112;18.418;2022-12-11T10:50:38;11.70;;;10.90;;
24259;SDS011;12384;48.112;18.418;2022-12-11T10:53:17;11.47;;;10.67;;
24259;SDS011;12384;48.112;18.418;2022-12-11T10:55:49;9.50;;;8.90;;
24259;SDS011;12384;48.112;18.418;2022-12-11T10:58:19;10.77;;;9.97;;
24259;SDS011;12384;48.112;18.418;2022-12-11T11:00:58;9.77;;;9.17;;
24259;SDS011;12384;48.112;18.418;2022-12-11T11:03:33;8.57;;;7.97;;
24259;SDS011;12384;48.112;18.418;2022-12-11T11:06:04;8.30;;;7.70;;
24259;SDS011;12384;48.112;18.418;2022-12-11T11:08:41;8.90;;;8.30;;
24259;SDS011;12384;48.112;18.418;2022-12-11T11:14:17;8.97;;;8.23;;
24259;SDS011;12384;48.112;18.418;2022-12-11T11:16:47;9.97;;;9.10;;
24259;SDS011;12384;48.112;18.418;2022-12-11T11:19:19;10.80;;;10.00;;
24259;SDS011;12384;48.112;18.418;2022-12-11T11:21:51;10.47;;;9.60;;
24259;SDS011;12384;48.112;18.418;2022-12-11T11:24:23;10.00;;;9.30;;
24259;SDS011;12384;48.112;18.418;2022-12-11T11:27:12;10.20;;;9.47;;
24259;SDS011;12384;48.112;18.418;2022-12-11T11:29:52;10.27;;;9.57;;
24259;SDS011;12384;48.112;18.418;2022-12-11T11:32:24;10.60;;;9.80;;
24259;SDS011;12384;48.112;18.418;2022-12-11T11:35:17;10.30;;;9.50;;
24259;SDS011;12384;48.112;18.418;2022-12-11T11:37:52;11.60;;;10.80;;
24259;SDS011;12384;48.112;18.418;2022-12-11T11:40:28;11.53;;;10.73;;
24259;SDS011;12384;48.112;18.418;2022-12-11T11:43:03;12.17;;;11.27;;
24259;SDS011;12384;48.112;18.418;2022-12-11T11:45:39;11.87;;;10.90;;
24259;SDS011;12384;48.112;18.418;2022-12-11T11:48:19;11.50;;;10.70;;
24259;SDS011;12384;48.112;18.418;2022-12-11T11:50:55;11.20;;;10.40;;
24259;SDS011;12384;48.112;18.418;2022-12-11T11:53:26;11.10;;;10.30;;
24259;SDS011;12384;48.112;18.418;2022-12-11T11:56:04;11.30;;;10.40;;
24259;SDS011;12384;48.112;18.418;2022-12-11T11:58:46;11.30;;;10.40;;
24259;SDS011;12384;48.112;18.418;2022-12-11T12:01:21;11.00;;;10.20;;
24259;SDS011;12384;48.112;18.418;2022-12-11T12:03:50;11.10;;;10.20;;
24259;SDS011;12384;48.112;18.418;2022-12-11T12:06:23;11.40;;;10.53;;
24259;SDS011;12384;48.112;18.418;2022-12-11T12:09:02;11.23;;;10.43;;
24259;SDS011;12384;48.112;18.418;2022-12-11T12:11:44;10.33;;;9.53;;
24259;SDS011;12384;48.112;18.418;2022-12-11T12:14:21;12.47;;;11.50;;
24259;SDS011;12384;48.112;18.418;2022-12-11T12:17:15;12.40;;;11.50;;
24259;SDS011;12384;48.112;18.418;2022-12-11T12:19:53;11.67;;;10.87;;
24259;SDS011;12384;48.112;18.418;2022-12-11T12:22:36;12.80;;;11.87;;
24259;SDS011;12384;48.112;18.418;2022-12-11T12:25:15;12.37;;;11.47;;
24259;SDS011;12384;48.112;18.418;2022-12-11T12:27:51;11.73;;;10.83;;
24259;SDS011;12384;48.112;18.418;2022-12-11T12:30:28;11.67;;;10.87;;
24259;SDS011;12384;48.112;18.418;2022-12-11T12:33:14;11.53;;;10.63;;
24259;SDS011;12384;48.112;18.418;2022-12-11T12:35:51;12.00;;;11.10;;
24259;SDS011;12384;48.112;18.418;2022-12-11T12:38:34;12.83;;;11.93;;
24259;SDS011;12384;48.112;18.418;2022-12-11T12:41:14;12.63;;;11.73;;
24259;SDS011;12384;48.112;18.418;2022-12-11T12:43:51;12.83;;;11.90;;
24259;SDS011;12384;48.112;18.418;2022-12-11T12:46:39;12.30;;;11.40;;
24259;SDS011;12384;48.112;18.418;2022-12-11T12:49:26;12.57;;;11.57;;
24259;SDS011;12384;48.112;18.418;2022-12-11T12:52:02;12.70;;;11.70;;
24259;SDS011;12384;48.112;18.418;2022-12-11T12:54:33;12.50;;;11.60;;
24259;SDS011;12384;48.112;18.418;2022-12-11T12:57:03;12.80;;;11.77;;
24259;SDS011;12384;48.112;18.418;2022-12-11T12:59:32;12.90;;;11.83;;
24259;SDS011;12384;48.112;18.418;2022-12-11T13:02:02;12.40;;;11.40;;
24259;SDS011;12384;48.112;18.418;2022-12-11T13:04:38;12.90;;;12.00;;
24259;SDS011;12384;48.112;18.418;2022-12-11T13:07:25;12.50;;;11.60;;
24259;SDS011;12384;48.112;18.418;2022-12-11T13:10:03;12.63;;;11.70;;
24259;SDS011;12384;48.112;18.418;2022-12-11T13:12:42;13.20;;;12.20;;
24259;SDS011;12384;48.112;18.418;2022-12-11T13:15:22;13.43;;;12.43;;
24259;SDS011;12384;48.112;18.418;2022-12-11T13:17:57;13.47;;;12.47;;
24259;SDS011;12384;48.112;18.418;2022-12-11T13:20:28;14.33;;;13.23;;
24259;SDS011;12384;48.112;18.418;2022-12-11T13:23:13;13.40;;;12.40;;
24259;SDS011;12384;48.112;18.418;2022-12-11T13:25:49;14.30;;;13.20;;
24259;SDS011;12384;48.112;18.418;2022-12-11T13:28:30;13.10;;;12.10;;
24259;SDS011;12384;48.112;18.418;2022-12-11T13:33:56;14.23;;;13.23;;
24259;SDS011;12384;48.112;18.418;2022-12-11T13:36:30;14.67;;;13.50;;
24259;SDS011;12384;48.112;18.418;2022-12-11T13:39:02;13.97;;;12.87;;
24259;SDS011;12384;48.112;18.418;2022-12-11T13:41:33;14.30;;;13.20;;
24259;SDS011;12384;48.112;18.418;2022-12-11T13:44:04;14.40;;;13.30;;
24259;SDS011;12384;48.112;18.418;2022-12-11T13:46:34;15.33;;;14.13;;
24259;SDS011;12384;48.112;18.418;2022-12-11T13:49:06;13.67;;;12.57;;
24259;SDS011;12384;48.112;18.418;2022-12-11T13:51:50;14.80;;;13.70;;
24259;SDS011;12384;48.112;18.418;2022-12-11T13:54:20;14.37;;;13.17;;
24259;SDS011;12384;48.112;18.418;2022-12-11T13:56:58;15.10;;;13.83;;
24259;SDS011;12384;48.112;18.418;2022-12-11T13:59:30;15.57;;;14.37;;
24259;SDS011;12384;48.112;18.418;2022-12-11T14:02:03;14.80;;;13.50;;
24259;SDS011;12384;48.112;18.418;2022-12-11T14:04:39;14.53;;;13.33;;
24259;SDS011;12384;48.112;18.418;2022-12-11T14:07:08;14.47;;;13.27;;
24259;SDS011;12384;48.112;18.418;2022-12-11T14:09:38;14.37;;;13.27;;
24259;SDS011;12384;48.112;18.418;2022-12-11T14:12:14;15.57;;;14.37;;
24259;SDS011;12384;48.112;18.418;2022-12-11T14:14:48;15.70;;;14.50;;
24259;SDS011;12384;48.112;18.418;2022-12-11T14:17:21;15.20;;;14.03;;
24259;SDS011;12384;48.112;18.418;2022-12-11T14:19:59;14.33;;;13.23;;
24259;SDS011;12384;48.112;18.418;2022-12-11T14:22:31;14.33;;;13.23;;
24259;SDS011;12384;48.112;18.418;2022-12-11T14:25:00;14.57;;;13.47;;
24259;SDS011;12384;48.112;18.418;2022-12-11T14:27:46;14.77;;;13.67;;
24259;SDS011;12384;48.112;18.418;2022-12-11T14:30:19;15.63;;;14.30;;
24259;SDS011;12384;48.112;18.418;2022-12-11T14:32:49;14.23;;;13.13;;
24259;SDS011;12384;48.112;18.418;2022-12-11T14:35:25;13.87;;;12.77;;
24259;SDS011;12384;48.112;18.418;2022-12-11T14:38:05;14.80;;;13.60;;
24259;SDS011;12384;48.112;18.418;2022-12-11T14:40:40;14.37;;;13.27;;
24259;SDS011;12384;48.112;18.418;2022-12-11T14:43:13;14.33;;;13.23;;
24259;SDS011;12384;48.112;18.418;2022-12-11T14:45:48;15.07;;;13.97;;
24259;SDS011;12384;48.112;18.418;2022-12-11T14:48:22;15.27;;;14.07;;
24259;SDS011;12384;48.112;18.418;2022-12-11T14:50:55;14.70;;;13.40;;
24259;SDS011;12384;48.112;18.418;2022-12-11T14:53:27;15.20;;;13.97;;
24259;SDS011;12384;48.112;18.418;2022-12-11T14:56:00;15.40;;;14.10;;
24259;SDS011;12384;48.112;18.418;2022-12-11T14:58:31;15.47;;;14.20;;